Pagrindinis puslapis
METAR-TAF:

METAR-TAF

Oro uostai :

Røst, Norvegija

platuma: 67-31N, ilguma: 012-06E, Aukštis: 4 m

Dabartinis oras

Ataskaita buvo paskelbta 15 minutes, ne 11:50 UTC
Vėjas 15 kt iš Rytų/Šiaurės Rytų
Temperatūra 9°C
Drėgmė 87%
Slėgis 1005 hPa
Matomumas 10 km arba daugiau
Mažai debesys ne aukštis 3500 ft
Su prošvaistėmis ne aukštis 7000 ft

METAR: ENRS 041150Z 06015KT 9999 FEW035 BKN070 09/07 Q1005

Laikas: 14:05 (12:05 UTC)


TAF: trūkstamas

Orai ataskaitas ir orų prognozės (METAR, TAF).

turimą stotys yra geltonos ir raudonos taškus žemėlapyje.

Perkelti pele per norėdami pamatyti stoties vardą.

Tada spustelėkite, norėdami matyti oro stebėjimo ir prognozės.

Norėdami pakeisti žemėlapį: spustelėkite ant žalios mygtukų su juodo kryžiaus žemyn,; žalią mygtuką su brūkšneliu, jei norite nutolinti; arba žalių rodyklių gretimoms žemėlapius.


METAR-TAF: